createdAt,value
2022-09-03T00:02:15.847Z,11.51
2022-09-03T00:05:06.669Z,12.21
2022-09-03T00:07:43.652Z,11.57
2022-09-03T00:10:15.758Z,11.80
2022-09-03T00:12:45.710Z,10.46
2022-09-03T00:15:16.094Z,9.76
2022-09-03T00:17:48.909Z,11.97
2022-09-03T00:20:21.661Z,12.07
2022-09-03T00:22:52.390Z,10.88
2022-09-03T00:25:26.693Z,10.55
2022-09-03T00:27:58.861Z,10.18
2022-09-03T00:30:28.041Z,10.75
2022-09-03T00:33:01.887Z,9.76
2022-09-03T00:35:36.871Z,10.64
2022-09-03T00:38:06.809Z,11.92
2022-09-03T00:40:54.425Z,9.09
2022-09-03T00:43:34.431Z,8.53
2022-09-03T00:46:11.348Z,10.12
2022-09-03T00:48:54.032Z,11.73
2022-09-03T00:51:33.447Z,10.61
2022-09-03T00:54:10.614Z,8.74
2022-09-03T00:56:47.708Z,10.56
2022-09-03T00:59:28.017Z,9.09
2022-09-03T01:02:14.537Z,9.36
2022-09-03T01:04:58.237Z,8.42
2022-09-03T01:07:40.100Z,9.54
2022-09-03T01:10:27.390Z,10.49
2022-09-03T01:13:02.173Z,10.24
2022-09-03T01:15:40.054Z,10.91
2022-09-03T01:18:18.819Z,11.48
2022-09-03T01:20:55.515Z,9.22
2022-09-03T01:23:55.320Z,11.53
2022-09-03T01:26:33.911Z,10.46
2022-09-03T01:29:16.169Z,10.20
2022-09-03T01:31:54.340Z,9.57
2022-09-03T01:34:34.243Z,9.82
2022-09-03T01:37:16.900Z,9.29
2022-09-03T01:39:59.558Z,11.54
2022-09-03T01:42:41.132Z,11.52
2022-09-03T01:45:33.854Z,11.51
2022-09-03T01:48:33.549Z,11.50
2022-09-03T01:51:12.195Z,9.78
2022-09-03T01:53:57.607Z,11.50
2022-09-03T01:56:37.883Z,9.79
2022-09-03T01:59:15.040Z,9.69
2022-09-03T02:01:48.068Z,11.23
2022-09-03T02:04:20.520Z,11.46
2022-09-03T02:06:49.793Z,11.07
2022-09-03T02:09:18.435Z,11.45
2022-09-03T02:11:52.109Z,11.06
2022-09-03T02:14:20.644Z,9.95
2022-09-03T02:16:50.468Z,9.71
2022-09-03T02:19:19.703Z,11.27
2022-09-03T02:21:52.638Z,10.83
2022-09-03T02:24:20.966Z,10.65
2022-09-03T02:26:48.919Z,9.58
2022-09-03T02:29:18.500Z,9.54
2022-09-03T02:31:46.510Z,9.19
2022-09-03T02:34:16.183Z,8.66
2022-09-03T02:36:46.375Z,11.15
2022-09-03T02:39:15.290Z,10.85
2022-09-03T02:41:43.869Z,7.96
2022-09-03T02:44:17.628Z,11.36
2022-09-03T02:46:51.568Z,10.01
2022-09-03T02:49:20.792Z,8.98
2022-09-03T02:51:48.745Z,10.20
2022-09-03T02:54:20.748Z,9.66
2022-09-03T02:56:49.786Z,8.67
2022-09-03T02:59:18.185Z,11.32
2022-09-03T03:01:46.646Z,9.01
2022-09-03T03:04:14.911Z,7.57
2022-09-03T03:06:47.717Z,9.34
2022-09-03T03:09:15.898Z,11.37
2022-09-03T03:11:44.173Z,9.89
2022-09-03T03:14:12.244Z,9.74
2022-09-03T03:16:40.228Z,9.18
2022-09-03T03:19:08.391Z,11.09
2022-09-03T03:21:36.458Z,9.41
2022-09-03T03:24:07.058Z,11.15
2022-09-03T03:26:35.090Z,8.23
2022-09-03T03:29:05.049Z,9.32
2022-09-03T03:31:33.832Z,10.47
2022-09-03T03:34:04.273Z,8.04
2022-09-03T03:36:34.760Z,10.21
2022-09-03T03:39:03.104Z,9.84
2022-09-03T03:41:33.724Z,9.95
2022-09-03T03:44:03.380Z,9.88
2022-09-03T03:46:34.637Z,10.39
2022-09-03T03:49:02.944Z,9.76
2022-09-03T03:51:32.620Z,10.43
2022-09-03T03:54:04.473Z,8.14
2022-09-03T03:56:34.824Z,10.95
2022-09-03T03:59:02.982Z,11.07
2022-09-03T04:01:31.235Z,11.26
2022-09-03T04:04:00.570Z,9.73
2022-09-03T04:06:29.576Z,11.77
2022-09-03T04:08:58.810Z,11.80
2022-09-03T04:11:27.209Z,8.99
2022-09-03T04:13:59.966Z,11.12
2022-09-03T04:16:29.609Z,10.59
2022-09-03T04:18:58.291Z,11.68
2022-09-03T04:21:28.557Z,10.45
2022-09-03T04:23:57.636Z,10.82
2022-09-03T04:26:28.343Z,11.82
2022-09-03T04:28:58.143Z,10.15
2022-09-03T04:31:26.652Z,11.85
2022-09-03T04:33:55.752Z,10.05
2022-09-03T04:36:25.757Z,10.26
2022-09-03T04:38:55.533Z,12.03
2022-09-03T04:41:25.916Z,11.27
2022-09-03T04:43:54.731Z,9.98
2022-09-03T04:46:26.800Z,12.08
2022-09-03T04:48:57.049Z,11.97
2022-09-03T04:51:28.114Z,12.12
2022-09-03T04:53:58.601Z,11.52
2022-09-03T04:56:28.818Z,12.15
2022-09-03T04:58:59.296Z,11.69
2022-09-03T05:01:32.667Z,11.05
2022-09-03T05:04:01.404Z,11.09
2022-09-03T05:06:31.615Z,9.03
2022-09-03T05:09:00.320Z,10.96
2022-09-03T05:11:29.684Z,10.50
2022-09-03T05:14:00.946Z,10.92
2022-09-03T05:16:52.610Z,11.78
2022-09-03T05:19:21.463Z,12.24
2022-09-03T05:21:49.603Z,11.53
2022-09-03T05:24:18.663Z,9.88
2022-09-03T05:26:49.041Z,10.33
2022-09-03T05:29:19.980Z,13.06
2022-09-03T05:31:49.581Z,13.17
2022-09-03T05:34:18.461Z,13.25
2022-09-03T05:36:47.077Z,13.32
2022-09-03T05:39:15.541Z,13.41
2022-09-03T05:41:43.850Z,13.49
2022-09-03T05:44:12.194Z,13.57
2022-09-03T05:46:40.398Z,13.38
2022-09-03T05:49:11.651Z,13.68
2022-09-03T05:51:40.585Z,12.69
2022-09-03T05:54:09.771Z,13.82
2022-09-03T05:56:41.057Z,13.91
2022-09-03T05:59:11.100Z,13.98
2022-09-03T06:01:41.261Z,13.84
2022-09-03T06:04:17.057Z,13.85
2022-09-03T06:06:46.906Z,14.25
2022-09-03T06:09:18.490Z,14.37
2022-09-03T06:11:50.359Z,14.49
2022-09-03T06:14:20.399Z,13.88
2022-09-03T06:16:50.117Z,14.68
2022-09-03T06:19:20.606Z,14.52
2022-09-03T06:21:48.966Z,14.66
2022-09-03T06:24:19.129Z,14.94
2022-09-03T06:26:48.464Z,14.87
2022-09-03T06:29:18.420Z,15.15
2022-09-03T06:31:52.605Z,14.81
2022-09-03T06:34:28.337Z,15.10
2022-09-03T06:36:56.319Z,15.05
2022-09-03T06:39:25.536Z,15.67
2022-09-03T06:41:54.041Z,15.83
2022-09-03T06:44:28.608Z,16.04
2022-09-03T06:47:00.358Z,16.26
2022-09-03T06:49:31.560Z,16.61
2022-09-03T06:51:59.705Z,17.55
2022-09-03T06:54:27.900Z,18.66
2022-09-03T06:56:56.234Z,19.15
2022-09-03T06:59:24.460Z,19.85
2022-09-03T07:02:07.115Z,20.38
2022-09-03T07:04:36.951Z,19.66
2022-09-03T07:07:05.449Z,19.94
2022-09-03T07:09:36.205Z,18.42
2022-09-03T07:12:04.412Z,19.16
2022-09-03T07:14:32.961Z,19.05
2022-09-03T07:17:01.145Z,18.93
2022-09-03T07:19:29.155Z,17.61
2022-09-03T07:21:58.614Z,18.68
2022-09-03T07:24:27.815Z,18.59
2022-09-03T07:26:58.124Z,18.28
2022-09-03T07:29:26.119Z,17.07
2022-09-03T07:31:54.423Z,16.39
2022-09-03T07:34:26.706Z,17.72
2022-09-03T07:36:55.267Z,17.75
2022-09-03T07:39:24.856Z,18.71
2022-09-03T07:41:52.993Z,18.60
2022-09-03T07:44:22.759Z,17.91
2022-09-03T07:46:52.094Z,18.99
2022-09-03T07:49:22.483Z,18.69
2022-09-03T07:51:54.682Z,19.11
2022-09-03T07:54:26.476Z,19.24
2022-09-03T07:57:10.198Z,19.32
2022-09-03T07:59:40.888Z,19.14
2022-09-03T08:02:10.169Z,19.28
2022-09-03T08:04:38.548Z,19.09
2022-09-03T08:07:06.762Z,19.13
2022-09-03T08:09:36.232Z,19.28
2022-09-03T08:12:05.696Z,19.26
2022-09-03T08:14:37.767Z,19.22
2022-09-03T08:17:12.687Z,19.16
2022-09-03T08:19:42.133Z,19.07
2022-09-03T08:22:10.667Z,19.06
2022-09-03T08:24:40.515Z,17.43
2022-09-03T08:27:09.782Z,19.42
2022-09-03T08:30:28.622Z,19.58
2022-09-03T08:37:18.762Z,18.10
2022-09-03T08:40:50.132Z,19.49
2022-09-03T08:46:05.071Z,18.68
2022-09-03T08:48:34.977Z,19.25
2022-09-03T08:51:04.816Z,18.64
2022-09-03T08:53:41.448Z,17.51
2022-09-03T08:56:14.620Z,17.74
2022-09-03T08:58:43.928Z,18.17
2022-09-03T09:01:24.847Z,18.20
2022-09-03T09:04:03.833Z,18.90
2022-09-03T09:06:40.287Z,18.90
2022-09-03T09:09:55.804Z,20.20
2022-09-03T09:13:39.607Z,20.36
2022-09-03T09:16:39.902Z,20.44
2022-09-03T09:19:35.671Z,19.00
2022-09-03T09:22:12.688Z,21.00
2022-09-03T09:24:46.130Z,21.13
2022-09-03T09:27:26.529Z,21.90
2022-09-03T09:29:56.429Z,22.16
2022-09-03T09:32:40.537Z,21.16
2022-09-03T09:35:12.695Z,22.93
2022-09-03T09:37:57.757Z,23.12
2022-09-03T09:47:26.678Z,23.05
2022-09-03T09:54:21.719Z,23.61
2022-09-03T09:57:02.524Z,23.51
2022-09-03T09:59:33.396Z,23.31
2022-09-03T10:02:22.267Z,23.37
2022-09-03T10:06:17.458Z,24.00
2022-09-03T10:08:49.801Z,23.98
2022-09-03T10:25:00.190Z,24.86
2022-09-03T10:27:30.273Z,25.41
2022-09-03T10:30:00.990Z,25.66
2022-09-03T10:33:23.491Z,27.66
2022-09-03T10:36:19.177Z,27.06
2022-09-03T10:38:54.816Z,26.75
2022-09-03T10:41:42.472Z,26.73
2022-09-03T10:44:35.639Z,26.83
2022-09-03T10:47:23.066Z,27.22
2022-09-03T10:50:02.508Z,27.10
2022-09-03T10:52:55.171Z,27.83
2022-09-03T10:56:13.877Z,29.80
2022-09-03T10:59:33.982Z,33.55
2022-09-03T11:02:31.643Z,36.82
2022-09-03T11:05:04.661Z,37.29
2022-09-03T11:07:38.643Z,38.51
2022-09-03T11:10:15.806Z,38.31
2022-09-03T11:12:49.252Z,37.22
2022-09-03T11:16:08.406Z,37.11
2022-09-03T11:22:23.822Z,33.74
2022-09-03T11:25:07.369Z,31.97
2022-09-03T11:28:13.810Z,31.79
2022-09-03T11:30:54.414Z,32.55
2022-09-03T11:33:31.204Z,32.43
2022-09-03T11:36:02.939Z,32.10
2022-09-03T11:39:59.534Z,32.16
2022-09-03T11:42:37.853Z,32.17
2022-09-03T11:45:23.158Z,32.23
2022-09-03T11:47:55.262Z,32.32
2022-09-03T11:51:34.602Z,33.90
2022-09-03T11:57:44.216Z,34.93
2022-09-03T12:00:27.184Z,34.51
2022-09-03T12:03:03.520Z,33.74
2022-09-03T12:06:02.194Z,32.23
2022-09-03T12:09:02.575Z,30.44
2022-09-03T12:11:43.733Z,29.08
2022-09-03T12:15:02.751Z,29.86
2022-09-03T12:17:36.598Z,28.92
2022-09-03T12:20:14.159Z,28.64
2022-09-03T12:22:42.486Z,27.59
2022-09-03T12:25:15.106Z,28.41
2022-09-03T12:27:45.797Z,28.01
2022-09-03T12:30:18.410Z,27.57
2022-09-03T12:32:48.787Z,27.16
2022-09-03T12:38:13.841Z,25.82
2022-09-03T12:43:37.585Z,26.27
2022-09-03T12:46:10.679Z,26.30
2022-09-03T12:48:43.617Z,25.38
2022-09-03T12:54:01.397Z,25.71
2022-09-03T12:56:35.170Z,24.87
2022-09-03T12:59:06.855Z,23.99
2022-09-03T13:01:43.957Z,24.99
2022-09-03T13:04:17.029Z,24.84
2022-09-03T13:06:54.111Z,23.49
2022-09-03T13:09:24.943Z,23.67
2022-09-03T13:11:55.643Z,24.83
2022-09-03T13:14:30.400Z,22.93
2022-09-03T13:17:25.012Z,25.08
2022-09-03T13:20:06.938Z,24.87
2022-09-03T13:23:19.578Z,25.21
2022-09-03T13:25:57.825Z,25.67
2022-09-03T13:28:44.469Z,24.27
2022-09-03T13:31:28.213Z,24.44
2022-09-03T13:34:03.010Z,25.35
2022-09-03T13:36:39.899Z,25.90
2022-09-03T13:39:22.218Z,26.12
2022-09-03T13:41:56.221Z,25.83
2022-09-03T13:44:40.736Z,25.88
2022-09-03T13:47:15.781Z,24.43
2022-09-03T13:50:13.462Z,24.19
2022-09-03T13:52:47.646Z,25.55
2022-09-03T13:55:23.162Z,25.71
2022-09-03T13:58:01.733Z,25.22
2022-09-03T14:00:41.306Z,25.87
2022-09-03T14:03:14.618Z,23.19
2022-09-03T14:06:01.482Z,25.82
2022-09-03T14:08:35.613Z,25.81
2022-09-03T14:11:21.771Z,25.05
2022-09-03T14:14:01.997Z,25.51
2022-09-03T14:16:43.097Z,25.08
2022-09-03T14:19:36.217Z,25.10
2022-09-03T14:27:12.345Z,25.54
2022-09-03T14:30:03.180Z,25.34
2022-09-03T14:32:48.269Z,25.33
2022-09-03T14:35:33.021Z,25.37
2022-09-03T14:42:01.438Z,24.46
2022-09-03T14:44:46.313Z,25.76
2022-09-03T14:47:30.051Z,25.35
2022-09-03T14:50:12.067Z,25.88
2022-09-03T14:53:00.985Z,26.02
2022-09-03T14:56:00.124Z,26.10
2022-09-03T14:58:50.007Z,26.10
2022-09-03T15:01:26.977Z,26.24
2022-09-03T15:04:26.507Z,24.98
2022-09-03T15:07:14.286Z,25.91
2022-09-03T15:09:48.229Z,25.33
2022-09-03T15:12:22.259Z,26.15
2022-09-03T15:14:55.827Z,25.12
2022-09-03T15:17:41.866Z,25.91
2022-09-03T15:20:21.882Z,25.50
2022-09-03T15:23:13.222Z,25.73
2022-09-03T15:26:07.598Z,24.06
2022-09-03T15:28:47.045Z,25.37
2022-09-03T15:31:23.635Z,24.04
2022-09-03T15:33:58.634Z,23.96
2022-09-03T15:36:29.519Z,24.47
2022-09-03T15:39:03.227Z,24.35
2022-09-03T15:41:39.736Z,24.51
2022-09-03T15:44:18.423Z,24.44
2022-09-03T15:46:57.759Z,23.90
2022-09-03T15:49:38.995Z,23.45
2022-09-03T15:52:21.078Z,23.07
2022-09-03T15:55:02.465Z,24.49
2022-09-03T15:57:36.873Z,24.53
2022-09-03T16:00:10.798Z,24.53
2022-09-03T16:02:45.898Z,23.97
2022-09-03T16:05:19.052Z,24.43
2022-09-03T16:08:05.962Z,23.78
2022-09-03T16:10:46.912Z,24.19
2022-09-03T16:13:33.750Z,22.93
2022-09-03T16:16:03.544Z,23.88
2022-09-03T16:18:36.303Z,23.64
2022-09-03T16:21:07.858Z,23.59
2022-09-03T16:23:42.455Z,23.08
2022-09-03T16:26:17.362Z,22.95
2022-09-03T16:28:53.312Z,23.11
2022-09-03T16:31:39.884Z,22.99
2022-09-03T16:34:18.981Z,22.87
2022-09-03T16:36:56.747Z,22.67
2022-09-03T16:39:34.156Z,22.45
2022-09-03T16:42:11.625Z,22.20
2022-09-03T16:44:52.828Z,20.35
2022-09-03T16:47:34.481Z,19.75
2022-09-03T16:50:15.223Z,21.70
2022-09-03T16:52:53.798Z,21.04
2022-09-03T16:55:27.595Z,19.91
2022-09-03T16:58:10.817Z,21.33
2022-09-03T17:00:51.234Z,20.42
2022-09-03T17:03:41.121Z,21.54
2022-09-03T17:06:22.620Z,21.19
2022-09-03T17:08:58.544Z,21.17
2022-09-03T17:11:43.419Z,20.86
2022-09-03T17:14:42.716Z,20.49
2022-09-03T17:17:22.678Z,20.69
2022-09-03T17:19:57.902Z,19.57
2022-09-03T17:22:40.883Z,19.75
2022-09-03T17:25:22.289Z,20.31
2022-09-03T17:27:54.382Z,20.31
2022-09-03T17:30:30.803Z,20.05
2022-09-03T17:33:35.374Z,21.00
2022-09-03T17:36:12.148Z,19.98
2022-09-03T17:39:17.527Z,21.04
2022-09-03T17:41:53.182Z,21.03
2022-09-03T17:44:35.547Z,21.02
2022-09-03T17:47:17.492Z,20.78
2022-09-03T17:49:50.448Z,20.16
2022-09-03T17:52:29.689Z,20.00
2022-09-03T17:55:01.337Z,19.55
2022-09-03T17:57:33.234Z,20.41
2022-09-03T18:00:04.248Z,20.04
2022-09-03T18:02:44.482Z,19.96
2022-09-03T18:05:19.904Z,20.38
2022-09-03T18:07:55.729Z,20.30
2022-09-03T18:10:31.228Z,20.21
2022-09-03T18:13:08.427Z,20.05
2022-09-03T18:15:40.645Z,18.84
2022-09-03T18:18:18.303Z,19.87
2022-09-03T18:21:23.273Z,19.94
2022-09-03T18:24:19.942Z,19.86
2022-09-03T18:27:14.121Z,19.30
2022-09-03T18:30:05.688Z,19.44
2022-09-03T18:32:51.718Z,18.91
2022-09-03T18:35:38.907Z,18.45
2022-09-03T18:38:24.359Z,19.48
2022-09-03T18:41:15.344Z,19.40
2022-09-03T18:44:10.464Z,18.27
2022-09-03T18:48:01.694Z,19.25
2022-09-03T18:50:19.315Z,19.17
2022-09-03T18:53:14.428Z,17.28
2022-09-03T18:56:14.347Z,18.97
2022-09-03T18:59:12.394Z,18.89
2022-09-03T19:02:00.715Z,18.81
2022-09-03T19:05:00.708Z,18.65
2022-09-03T19:08:00.439Z,18.68
2022-09-03T19:10:59.166Z,18.64
2022-09-03T19:13:51.963Z,18.62
2022-09-03T19:16:49.391Z,18.60
2022-09-03T19:20:06.806Z,18.55
2022-09-03T19:22:54.224Z,18.51
2022-09-03T19:25:41.064Z,18.40
2022-09-03T19:28:34.646Z,18.41
2022-09-03T19:31:43.422Z,18.34
2022-09-03T19:34:45.366Z,18.25
2022-09-03T19:37:36.887Z,18.16
2022-09-03T19:40:43.308Z,18.08
2022-09-03T19:43:38.403Z,17.70
2022-09-03T19:46:29.319Z,17.94
2022-09-03T19:49:22.014Z,16.97
2022-09-03T19:52:18.154Z,17.80
2022-09-03T19:55:05.989Z,17.75
2022-09-03T19:57:51.400Z,17.69
2022-09-03T20:00:48.167Z,17.09
2022-09-03T20:03:34.481Z,13.87
2022-09-03T20:06:23.750Z,17.51
2022-09-03T20:09:10.198Z,17.47
2022-09-03T20:11:40.301Z,17.42
2022-09-03T20:14:14.953Z,17.06
2022-09-03T20:16:56.381Z,17.36
2022-09-03T20:19:36.850Z,17.33
2022-09-03T20:22:13.147Z,16.20
2022-09-03T20:24:56.559Z,16.42
2022-09-03T20:27:37.347Z,17.25
2022-09-03T20:30:09.285Z,16.77
2022-09-03T20:32:57.950Z,17.10
2022-09-03T20:35:41.894Z,16.88
2022-09-03T20:38:28.626Z,17.05
2022-09-03T20:41:08.785Z,17.02
2022-09-03T20:43:50.903Z,15.93
2022-09-03T20:46:31.045Z,16.71
2022-09-03T20:49:09.816Z,16.89
2022-09-03T20:51:43.246Z,16.85
2022-09-03T20:54:18.532Z,15.29
2022-09-03T20:57:00.532Z,16.76
2022-09-03T20:59:44.481Z,16.15
2022-09-03T21:02:25.834Z,16.57
2022-09-03T21:05:07.040Z,15.64
2022-09-03T21:07:45.799Z,16.54
2022-09-03T21:10:21.102Z,16.56
2022-09-03T21:12:54.625Z,16.52
2022-09-03T21:15:29.635Z,16.49
2022-09-03T21:18:07.958Z,16.46
2022-09-03T21:20:45.851Z,15.83
2022-09-03T21:23:20.985Z,16.41
2022-09-03T21:25:56.860Z,16.38
2022-09-03T21:28:31.091Z,16.08
2022-09-03T21:31:03.592Z,15.69
2022-09-03T21:33:36.053Z,16.29
2022-09-03T21:36:10.524Z,15.98
2022-09-03T21:38:49.250Z,15.65
2022-09-03T21:41:23.119Z,15.09
2022-09-03T21:43:57.846Z,15.91
2022-09-03T21:46:32.269Z,15.85
2022-09-03T21:49:03.670Z,16.15
2022-09-03T21:51:39.787Z,16.11
2022-09-03T21:54:12.723Z,15.75
2022-09-03T21:57:06.745Z,16.02
2022-09-03T22:00:12.546Z,16.04
2022-09-03T22:02:42.082Z,16.01
2022-09-03T22:05:10.441Z,15.53
2022-09-03T22:07:53.944Z,14.50
2022-09-03T22:10:26.780Z,15.94
2022-09-03T22:13:09.412Z,15.91
2022-09-03T22:15:38.817Z,15.88
2022-09-03T22:18:15.434Z,15.85
2022-09-03T22:20:57.864Z,15.72
2022-09-03T22:23:42.871Z,15.83
2022-09-03T22:26:25.247Z,15.29
2022-09-03T22:29:06.982Z,15.77
2022-09-03T22:31:47.260Z,15.73
2022-09-03T22:34:34.726Z,15.49
2022-09-03T22:37:04.005Z,15.67
2022-09-03T22:39:39.572Z,15.66
2022-09-03T22:42:23.462Z,15.63
2022-09-03T22:45:19.785Z,15.60
2022-09-03T22:47:59.033Z,15.30
2022-09-03T22:50:32.534Z,15.52
2022-09-03T22:53:13.229Z,15.49
2022-09-03T22:55:47.621Z,15.45
2022-09-03T22:58:22.210Z,15.43
2022-09-03T23:00:54.490Z,15.42
2022-09-03T23:03:28.229Z,15.43
2022-09-03T23:06:04.578Z,15.41
2022-09-03T23:08:36.482Z,15.10
2022-09-03T23:11:10.840Z,15.39
2022-09-03T23:13:42.830Z,15.37
2022-09-03T23:16:18.639Z,13.72
2022-09-03T23:18:49.561Z,13.98
